sensor_id;sensor_type;location;lat;lon;timestamp;temperature;humidity
21787;DHT22;11055;50.870;4.316;2023-06-10T00:01:37;25.60;87.60
21787;DHT22;11055;50.870;4.316;2023-06-10T00:04:03;25.50;88.30
21787;DHT22;11055;50.870;4.316;2023-06-10T00:06:30;25.50;89.00
21787;DHT22;11055;50.870;4.316;2023-06-10T00:09:04;25.40;89.20
21787;DHT22;11055;50.870;4.316;2023-06-10T00:11:31;25.50;89.30
21787;DHT22;11055;50.870;4.316;2023-06-10T00:13:58;25.40;89.80
21787;DHT22;11055;50.870;4.316;2023-06-10T00:16:23;25.50;89.70
21787;DHT22;11055;50.870;4.316;2023-06-10T00:18:49;25.40;90.00
21787;DHT22;11055;50.870;4.316;2023-06-10T00:21:17;25.50;90.40
21787;DHT22;11055;50.870;4.316;2023-06-10T00:23:43;25.40;90.10
21787;DHT22;11055;50.870;4.316;2023-06-10T00:26:09;25.30;90.20
21787;DHT22;11055;50.870;4.316;2023-06-10T00:28:35;25.30;90.50
21787;DHT22;11055;50.870;4.316;2023-06-10T00:31:01;25.30;90.70
21787;DHT22;11055;50.870;4.316;2023-06-10T00:33:27;25.30;90.90
21787;DHT22;11055;50.870;4.316;2023-06-10T00:35:53;25.30;90.90
21787;DHT22;11055;50.870;4.316;2023-06-10T00:38:19;25.30;90.80
21787;DHT22;11055;50.870;4.316;2023-06-10T00:40:44;25.30;90.90
21787;DHT22;11055;50.870;4.316;2023-06-10T00:43:10;25.30;91.00
21787;DHT22;11055;50.870;4.316;2023-06-10T00:45:36;25.20;91.00
21787;DHT22;11055;50.870;4.316;2023-06-10T00:48:02;25.10;91.20
21787;DHT22;11055;50.870;4.316;2023-06-10T00:50:29;25.10;91.20
21787;DHT22;11055;50.870;4.316;2023-06-10T00:52:56;25.00;91.50
21787;DHT22;11055;50.870;4.316;2023-06-10T00:55:23;25.00;91.50
21787;DHT22;11055;50.870;4.316;2023-06-10T00:57:50;25.00;91.60
21787;DHT22;11055;50.870;4.316;2023-06-10T01:00:17;24.80;91.60
21787;DHT22;11055;50.870;4.316;2023-06-10T01:02:43;24.70;92.00
21787;DHT22;11055;50.870;4.316;2023-06-10T01:05:09;24.60;92.30
21787;DHT22;11055;50.870;4.316;2023-06-10T01:07:43;24.50;92.40
21787;DHT22;11055;50.870;4.316;2023-06-10T01:10:37;24.50;92.50
21787;DHT22;11055;50.870;4.316;2023-06-10T01:13:09;24.50;92.50
21787;DHT22;11055;50.870;4.316;2023-06-10T01:15:38;24.40;92.60
21787;DHT22;11055;50.870;4.316;2023-06-10T01:18:05;24.50;92.70
21787;DHT22;11055;50.870;4.316;2023-06-10T01:20:35;24.50;92.50
21787;DHT22;11055;50.870;4.316;2023-06-10T01:23:02;24.50;92.50
21787;DHT22;11055;50.870;4.316;2023-06-10T01:25:31;24.40;92.70
21787;DHT22;11055;50.870;4.316;2023-06-10T01:28:07;24.40;93.00
21787;DHT22;11055;50.870;4.316;2023-06-10T01:33:12;24.20;93.00
21787;DHT22;11055;50.870;4.316;2023-06-10T01:35:39;24.00;93.50
21787;DHT22;11055;50.870;4.316;2023-06-10T01:38:05;24.00;93.80
21787;DHT22;11055;50.870;4.316;2023-06-10T01:40:32;23.90;94.00
21787;DHT22;11055;50.870;4.316;2023-06-10T01:42:58;23.90;94.20
21787;DHT22;11055;50.870;4.316;2023-06-10T01:45:24;23.90;94.10
21787;DHT22;11055;50.870;4.316;2023-06-10T01:47:49;24.00;94.10
21787;DHT22;11055;50.870;4.316;2023-06-10T01:50:15;24.00;94.20
21787;DHT22;11055;50.870;4.316;2023-06-10T01:52:42;24.10;94.10
21787;DHT22;11055;50.870;4.316;2023-06-10T01:55:08;24.10;94.10
21787;DHT22;11055;50.870;4.316;2023-06-10T01:57:33;24.10;94.00
21787;DHT22;11055;50.870;4.316;2023-06-10T01:59:59;24.00;94.00
21787;DHT22;11055;50.870;4.316;2023-06-10T02:02:25;24.00;94.10
21787;DHT22;11055;50.870;4.316;2023-06-10T02:04:50;24.10;93.90
21787;DHT22;11055;50.870;4.316;2023-06-10T02:07:16;24.10;94.10
21787;DHT22;11055;50.870;4.316;2023-06-10T02:09:41;24.00;94.20
21787;DHT22;11055;50.870;4.316;2023-06-10T02:12:07;23.90;94.40
21787;DHT22;11055;50.870;4.316;2023-06-10T02:14:34;23.90;94.60
21787;DHT22;11055;50.870;4.316;2023-06-10T02:16:59;23.90;94.40
21787;DHT22;11055;50.870;4.316;2023-06-10T02:19:26;24.00;94.60
21787;DHT22;11055;50.870;4.316;2023-06-10T02:21:52;24.00;94.60
21787;DHT22;11055;50.870;4.316;2023-06-10T02:24:18;24.00;94.60
21787;DHT22;11055;50.870;4.316;2023-06-10T02:26:44;24.00;95.00
21787;DHT22;11055;50.870;4.316;2023-06-10T02:29:10;24.00;94.70
21787;DHT22;11055;50.870;4.316;2023-06-10T02:31:36;24.00;94.60
21787;DHT22;11055;50.870;4.316;2023-06-10T02:34:03;24.00;94.80
21787;DHT22;11055;50.870;4.316;2023-06-10T02:36:29;24.00;94.90
21787;DHT22;11055;50.870;4.316;2023-06-10T02:38:55;24.00;95.00
21787;DHT22;11055;50.870;4.316;2023-06-10T02:41:21;24.00;95.00
21787;DHT22;11055;50.870;4.316;2023-06-10T02:43:47;23.90;95.10
21787;DHT22;11055;50.870;4.316;2023-06-10T02:46:13;23.90;94.90
21787;DHT22;11055;50.870;4.316;2023-06-10T02:48:43;23.80;95.30
21787;DHT22;11055;50.870;4.316;2023-06-10T02:51:11;23.80;95.20
21787;DHT22;11055;50.870;4.316;2023-06-10T02:53:37;23.80;95.10
21787;DHT22;11055;50.870;4.316;2023-06-10T02:56:03;23.80;95.40
21787;DHT22;11055;50.870;4.316;2023-06-10T02:58:29;23.80;95.30
21787;DHT22;11055;50.870;4.316;2023-06-10T03:00:54;23.80;95.60
21787;DHT22;11055;50.870;4.316;2023-06-10T03:03:20;23.80;95.40
21787;DHT22;11055;50.870;4.316;2023-06-10T03:05:48;23.70;95.80
21787;DHT22;11055;50.870;4.316;2023-06-10T03:08:14;23.70;96.00
21787;DHT22;11055;50.870;4.316;2023-06-10T03:10:39;23.60;96.10
21787;DHT22;11055;50.870;4.316;2023-06-10T03:13:05;23.60;96.30
21787;DHT22;11055;50.870;4.316;2023-06-10T03:15:31;23.50;96.40
21787;DHT22;11055;50.870;4.316;2023-06-10T03:17:59;23.50;96.80
21787;DHT22;11055;50.870;4.316;2023-06-10T03:20:25;23.40;97.20
21787;DHT22;11055;50.870;4.316;2023-06-10T03:22:53;23.40;97.20
21787;DHT22;11055;50.870;4.316;2023-06-10T03:25:18;23.40;97.20
21787;DHT22;11055;50.870;4.316;2023-06-10T03:27:46;23.40;97.60
21787;DHT22;11055;50.870;4.316;2023-06-10T03:30:13;23.30;97.80
21787;DHT22;11055;50.870;4.316;2023-06-10T03:32:39;23.20;98.20
21787;DHT22;11055;50.870;4.316;2023-06-10T03:35:06;23.10;98.30
21787;DHT22;11055;50.870;4.316;2023-06-10T03:37:32;23.20;98.30
21787;DHT22;11055;50.870;4.316;2023-06-10T03:39:58;23.30;98.10
21787;DHT22;11055;50.870;4.316;2023-06-10T03:42:24;23.30;97.90
21787;DHT22;11055;50.870;4.316;2023-06-10T03:44:50;23.30;98.20
21787;DHT22;11055;50.870;4.316;2023-06-10T03:47:16;23.20;98.30
21787;DHT22;11055;50.870;4.316;2023-06-10T03:49:41;23.20;98.80
21787;DHT22;11055;50.870;4.316;2023-06-10T03:52:08;23.20;98.50
21787;DHT22;11055;50.870;4.316;2023-06-10T03:54:33;23.10;98.90
21787;DHT22;11055;50.870;4.316;2023-06-10T03:57:00;23.10;99.00
21787;DHT22;11055;50.870;4.316;2023-06-10T03:59:26;23.10;99.20
21787;DHT22;11055;50.870;4.316;2023-06-10T04:01:52;23.00;99.50
21787;DHT22;11055;50.870;4.316;2023-06-10T04:04:17;23.00;99.90
21787;DHT22;11055;50.870;4.316;2023-06-10T04:06:43;23.00;99.90
21787;DHT22;11055;50.870;4.316;2023-06-10T04:09:10;23.00;99.90
21787;DHT22;11055;50.870;4.316;2023-06-10T04:11:36;23.00;99.90
21787;DHT22;11055;50.870;4.316;2023-06-10T04:14:01;23.10;99.90
21787;DHT22;11055;50.870;4.316;2023-06-10T04:16:27;23.00;99.90
21787;DHT22;11055;50.870;4.316;2023-06-10T04:18:53;23.00;99.90
21787;DHT22;11055;50.870;4.316;2023-06-10T04:21:19;23.00;99.90
21787;DHT22;11055;50.870;4.316;2023-06-10T04:23:45;23.00;99.90
21787;DHT22;11055;50.870;4.316;2023-06-10T04:26:10;23.10;99.90
21787;DHT22;11055;50.870;4.316;2023-06-10T04:28:37;23.10;99.90
21787;DHT22;11055;50.870;4.316;2023-06-10T04:31:03;23.00;99.90
21787;DHT22;11055;50.870;4.316;2023-06-10T04:33:30;22.80;99.90
21787;DHT22;11055;50.870;4.316;2023-06-10T04:35:56;22.80;99.90
21787;DHT22;11055;50.870;4.316;2023-06-10T04:38:22;22.80;99.90
21787;DHT22;11055;50.870;4.316;2023-06-10T04:40:47;22.60;99.90
21787;DHT22;11055;50.870;4.316;2023-06-10T04:43:13;22.60;99.90
21787;DHT22;11055;50.870;4.316;2023-06-10T04:45:39;22.60;99.90
21787;DHT22;11055;50.870;4.316;2023-06-10T04:48:05;22.60;99.90
21787;DHT22;11055;50.870;4.316;2023-06-10T04:50:32;22.60;99.90
21787;DHT22;11055;50.870;4.316;2023-06-10T04:52:58;22.60;99.90
21787;DHT22;11055;50.870;4.316;2023-06-10T04:55:24;22.60;99.90
21787;DHT22;11055;50.870;4.316;2023-06-10T04:57:50;22.60;99.90
21787;DHT22;11055;50.870;4.316;2023-06-10T05:00:17;22.60;99.90
21787;DHT22;11055;50.870;4.316;2023-06-10T05:02:42;22.60;99.90
21787;DHT22;11055;50.870;4.316;2023-06-10T05:05:08;22.60;99.90
21787;DHT22;11055;50.870;4.316;2023-06-10T05:07:34;22.60;99.90
21787;DHT22;11055;50.870;4.316;2023-06-10T05:10:00;22.50;99.90
21787;DHT22;11055;50.870;4.316;2023-06-10T05:12:26;22.60;99.90
21787;DHT22;11055;50.870;4.316;2023-06-10T05:14:52;22.60;99.90
21787;DHT22;11055;50.870;4.316;2023-06-10T05:17:18;22.70;99.90
21787;DHT22;11055;50.870;4.316;2023-06-10T05:19:43;22.80;99.90
21787;DHT22;11055;50.870;4.316;2023-06-10T05:22:09;22.80;99.90
21787;DHT22;11055;50.870;4.316;2023-06-10T05:24:35;22.80;99.90
21787;DHT22;11055;50.870;4.316;2023-06-10T05:27:01;22.80;99.90
21787;DHT22;11055;50.870;4.316;2023-06-10T05:29:28;22.70;99.90
21787;DHT22;11055;50.870;4.316;2023-06-10T05:31:53;22.60;99.90
21787;DHT22;11055;50.870;4.316;2023-06-10T05:34:21;22.60;99.90
21787;DHT22;11055;50.870;4.316;2023-06-10T05:36:47;22.60;99.90
21787;DHT22;11055;50.870;4.316;2023-06-10T05:39:13;22.60;99.90
21787;DHT22;11055;50.870;4.316;2023-06-10T05:41:38;22.50;99.90
21787;DHT22;11055;50.870;4.316;2023-06-10T05:44:04;22.50;99.90
21787;DHT22;11055;50.870;4.316;2023-06-10T05:46:30;22.50;99.90
21787;DHT22;11055;50.870;4.316;2023-06-10T05:48:55;22.60;99.90
21787;DHT22;11055;50.870;4.316;2023-06-10T05:51:21;22.60;99.90
21787;DHT22;11055;50.870;4.316;2023-06-10T05:53:47;22.60;99.90
21787;DHT22;11055;50.870;4.316;2023-06-10T05:56:14;22.80;99.90
21787;DHT22;11055;50.870;4.316;2023-06-10T05:58:40;22.90;99.90
21787;DHT22;11055;50.870;4.316;2023-06-10T06:01:05;22.90;99.90
21787;DHT22;11055;50.870;4.316;2023-06-10T06:03:31;23.00;99.90
21787;DHT22;11055;50.870;4.316;2023-06-10T06:05:57;23.10;99.90
21787;DHT22;11055;50.870;4.316;2023-06-10T06:08:22;23.00;99.90
21787;DHT22;11055;50.870;4.316;2023-06-10T06:10:48;23.20;99.90
21787;DHT22;11055;50.870;4.316;2023-06-10T06:13:14;23.20;99.90
21787;DHT22;11055;50.870;4.316;2023-06-10T06:15:39;23.20;99.90
21787;DHT22;11055;50.870;4.316;2023-06-10T06:18:05;23.20;99.90
21787;DHT22;11055;50.870;4.316;2023-06-10T06:20:31;23.10;99.90
21787;DHT22;11055;50.870;4.316;2023-06-10T06:22:56;23.00;99.90
21787;DHT22;11055;50.870;4.316;2023-06-10T06:25:22;23.00;99.90
21787;DHT22;11055;50.870;4.316;2023-06-10T06:27:48;23.00;99.90
21787;DHT22;11055;50.870;4.316;2023-06-10T06:30:14;23.10;99.90
21787;DHT22;11055;50.870;4.316;2023-06-10T06:32:40;23.20;99.90
21787;DHT22;11055;50.870;4.316;2023-06-10T06:35:05;23.30;99.90
21787;DHT22;11055;50.870;4.316;2023-06-10T06:37:33;23.30;99.90
21787;DHT22;11055;50.870;4.316;2023-06-10T06:39:59;23.30;99.90
21787;DHT22;11055;50.870;4.316;2023-06-10T06:42:25;23.50;99.90
21787;DHT22;11055;50.870;4.316;2023-06-10T06:44:50;23.60;99.90
21787;DHT22;11055;50.870;4.316;2023-06-10T06:47:16;23.50;99.90
21787;DHT22;11055;50.870;4.316;2023-06-10T06:49:48;23.60;99.90
21787;DHT22;11055;50.870;4.316;2023-06-10T06:52:15;23.70;99.90
21787;DHT22;11055;50.870;4.316;2023-06-10T06:54:41;23.80;99.90
21787;DHT22;11055;50.870;4.316;2023-06-10T06:57:07;23.90;99.90
21787;DHT22;11055;50.870;4.316;2023-06-10T06:59:33;24.00;99.90
21787;DHT22;11055;50.870;4.316;2023-06-10T07:01:58;24.10;99.90
21787;DHT22;11055;50.870;4.316;2023-06-10T07:04:24;24.10;99.90
21787;DHT22;11055;50.870;4.316;2023-06-10T07:06:50;24.20;99.90
21787;DHT22;11055;50.870;4.316;2023-06-10T07:09:19;24.20;99.90
21787;DHT22;11055;50.870;4.316;2023-06-10T07:11:44;24.30;99.90
21787;DHT22;11055;50.870;4.316;2023-06-10T07:14:10;24.40;99.90
21787;DHT22;11055;50.870;4.316;2023-06-10T07:16:36;24.50;99.90
21787;DHT22;11055;50.870;4.316;2023-06-10T07:19:01;24.60;99.90
21787;DHT22;11055;50.870;4.316;2023-06-10T07:21:27;24.60;99.90
21787;DHT22;11055;50.870;4.316;2023-06-10T07:23:54;24.60;99.90
21787;DHT22;11055;50.870;4.316;2023-06-10T07:26:21;24.80;99.90
21787;DHT22;11055;50.870;4.316;2023-06-10T07:28:47;25.00;99.90
21787;DHT22;11055;50.870;4.316;2023-06-10T07:31:13;25.10;99.90
21787;DHT22;11055;50.870;4.316;2023-06-10T07:33:39;25.30;99.90
21787;DHT22;11055;50.870;4.316;2023-06-10T07:36:05;25.40;99.90
21787;DHT22;11055;50.870;4.316;2023-06-10T07:38:31;25.30;99.70
21787;DHT22;11055;50.870;4.316;2023-06-10T07:40:57;25.50;99.70
21787;DHT22;11055;50.870;4.316;2023-06-10T07:43:24;25.60;99.80
21787;DHT22;11055;50.870;4.316;2023-06-10T07:45:50;25.60;99.10
21787;DHT22;11055;50.870;4.316;2023-06-10T07:48:15;25.60;99.60
21787;DHT22;11055;50.870;4.316;2023-06-10T07:50:41;25.70;99.30
21787;DHT22;11055;50.870;4.316;2023-06-10T07:53:07;25.80;98.90
21787;DHT22;11055;50.870;4.316;2023-06-10T07:55:33;26.00;98.50
21787;DHT22;11055;50.870;4.316;2023-06-10T07:57:58;26.20;98.60
21787;DHT22;11055;50.870;4.316;2023-06-10T08:00:24;26.40;97.60
21787;DHT22;11055;50.870;4.316;2023-06-10T08:02:50;26.50;97.50
21787;DHT22;11055;50.870;4.316;2023-06-10T08:05:16;26.70;96.90
21787;DHT22;11055;50.870;4.316;2023-06-10T08:07:42;26.90;96.00
21787;DHT22;11055;50.870;4.316;2023-06-10T08:10:08;27.00;95.40
21787;DHT22;11055;50.870;4.316;2023-06-10T08:12:34;27.10;96.00
21787;DHT22;11055;50.870;4.316;2023-06-10T08:15:01;27.20;95.40
21787;DHT22;11055;50.870;4.316;2023-06-10T08:17:26;27.10;95.90
21787;DHT22;11055;50.870;4.316;2023-06-10T08:19:52;27.20;95.00
21787;DHT22;11055;50.870;4.316;2023-06-10T08:22:17;27.20;94.30
21787;DHT22;11055;50.870;4.316;2023-06-10T08:24:43;27.20;94.80
21787;DHT22;11055;50.870;4.316;2023-06-10T08:27:09;27.30;94.30
21787;DHT22;11055;50.870;4.316;2023-06-10T08:29:35;27.30;94.70
21787;DHT22;11055;50.870;4.316;2023-06-10T08:32:01;27.40;93.60
21787;DHT22;11055;50.870;4.316;2023-06-10T08:34:28;27.40;93.40
21787;DHT22;11055;50.870;4.316;2023-06-10T08:36:53;27.50;94.20
21787;DHT22;11055;50.870;4.316;2023-06-10T08:39:21;27.50;93.30
21787;DHT22;11055;50.870;4.316;2023-06-10T08:44:43;27.60;93.90
21787;DHT22;11055;50.870;4.316;2023-06-10T08:47:15;27.70;93.00
21787;DHT22;11055;50.870;4.316;2023-06-10T08:49:44;27.90;92.50
21787;DHT22;11055;50.870;4.316;2023-06-10T08:52:17;28.00;91.90
21787;DHT22;11055;50.870;4.316;2023-06-10T08:54:56;28.20;91.10
21787;DHT22;11055;50.870;4.316;2023-06-10T08:57:22;28.30;91.40
21787;DHT22;11055;50.870;4.316;2023-06-10T08:59:48;28.00;91.30
21787;DHT22;11055;50.870;4.316;2023-06-10T09:02:15;28.00;91.50
21787;DHT22;11055;50.870;4.316;2023-06-10T09:04:44;28.00;91.00
21787;DHT22;11055;50.870;4.316;2023-06-10T09:07:11;28.10;90.40
21787;DHT22;11055;50.870;4.316;2023-06-10T09:09:37;28.20;89.50
21787;DHT22;11055;50.870;4.316;2023-06-10T09:12:04;28.40;90.30
21787;DHT22;11055;50.870;4.316;2023-06-10T09:14:30;28.60;89.60
21787;DHT22;11055;50.870;4.316;2023-06-10T09:16:55;28.70;90.50
21787;DHT22;11055;50.870;4.316;2023-06-10T09:19:25;28.80;89.90
21787;DHT22;11055;50.870;4.316;2023-06-10T09:21:50;28.90;87.90
21787;DHT22;11055;50.870;4.316;2023-06-10T09:24:16;29.00;87.90
21787;DHT22;11055;50.870;4.316;2023-06-10T09:26:43;29.10;86.80
21787;DHT22;11055;50.870;4.316;2023-06-10T09:29:09;29.10;86.60
21787;DHT22;11055;50.870;4.316;2023-06-10T09:31:38;29.20;85.50
21787;DHT22;11055;50.870;4.316;2023-06-10T09:34:11;29.30;85.10
21787;DHT22;11055;50.870;4.316;2023-06-10T09:36:38;29.40;84.40
21787;DHT22;11055;50.870;4.316;2023-06-10T09:39:05;29.30;83.50
21787;DHT22;11055;50.870;4.316;2023-06-10T09:41:35;29.50;85.00
21787;DHT22;11055;50.870;4.316;2023-06-10T09:44:01;29.40;85.10
21787;DHT22;11055;50.870;4.316;2023-06-10T09:46:31;29.60;85.20
21787;DHT22;11055;50.870;4.316;2023-06-10T09:48:58;29.70;82.90
21787;DHT22;11055;50.870;4.316;2023-06-10T09:51:24;29.80;82.00
21787;DHT22;11055;50.870;4.316;2023-06-10T09:53:53;29.70;78.50
21787;DHT22;11055;50.870;4.316;2023-06-10T09:56:19;29.90;78.70
21787;DHT22;11055;50.870;4.316;2023-06-10T09:58:46;30.00;80.00
21787;DHT22;11055;50.870;4.316;2023-06-10T10:01:15;30.00;78.90
21787;DHT22;11055;50.870;4.316;2023-06-10T10:03:48;29.90;76.20
21787;DHT22;11055;50.870;4.316;2023-06-10T10:06:15;30.00;78.00
21787;DHT22;11055;50.870;4.316;2023-06-10T10:08:41;30.00;78.40
21787;DHT22;11055;50.870;4.316;2023-06-10T10:11:07;30.00;77.10
21787;DHT22;11055;50.870;4.316;2023-06-10T10:13:34;30.10;76.10
21787;DHT22;11055;50.870;4.316;2023-06-10T10:16:06;29.80;76.60
21787;DHT22;11055;50.870;4.316;2023-06-10T10:18:35;29.90;76.80
21787;DHT22;11055;50.870;4.316;2023-06-10T10:21:07;30.10;76.90
21787;DHT22;11055;50.870;4.316;2023-06-10T10:26:18;30.60;72.70
21787;DHT22;11055;50.870;4.316;2023-06-10T10:28:58;30.70;69.60
21787;DHT22;11055;50.870;4.316;2023-06-10T10:31:27;30.80;71.00
21787;DHT22;11055;50.870;4.316;2023-06-10T10:33:58;30.90;69.70
21787;DHT22;11055;50.870;4.316;2023-06-10T10:36:25;30.70;69.10
21787;DHT22;11055;50.870;4.316;2023-06-10T10:38:51;30.60;69.50
21787;DHT22;11055;50.870;4.316;2023-06-10T10:41:19;30.60;71.80
21787;DHT22;11055;50.870;4.316;2023-06-10T10:43:46;30.70;69.40
21787;DHT22;11055;50.870;4.316;2023-06-10T10:46:16;30.90;68.40
21787;DHT22;11055;50.870;4.316;2023-06-10T10:48:43;31.00;69.80
21787;DHT22;11055;50.870;4.316;2023-06-10T10:51:10;31.00;68.70
21787;DHT22;11055;50.870;4.316;2023-06-10T10:53:39;31.10;66.70
21787;DHT22;11055;50.870;4.316;2023-06-10T10:56:16;31.20;66.10
21787;DHT22;11055;50.870;4.316;2023-06-10T10:59:04;31.20;62.70
21787;DHT22;11055;50.870;4.316;2023-06-10T11:01:40;31.00;63.40
21787;DHT22;11055;50.870;4.316;2023-06-10T11:04:08;30.90;62.50
21787;DHT22;11055;50.870;4.316;2023-06-10T11:06:34;31.00;61.70
21787;DHT22;11055;50.870;4.316;2023-06-10T11:09:00;31.00;61.60
21787;DHT22;11055;50.870;4.316;2023-06-10T11:11:27;31.00;61.00
21787;DHT22;11055;50.870;4.316;2023-06-10T11:16:30;30.90;59.50
21787;DHT22;11055;50.870;4.316;2023-06-10T11:19:03;30.80;58.80
21787;DHT22;11055;50.870;4.316;2023-06-10T11:21:28;30.80;60.30
21787;DHT22;11055;50.870;4.316;2023-06-10T11:23:58;30.80;60.40
21787;DHT22;11055;50.870;4.316;2023-06-10T11:31:20;30.80;61.10
21787;DHT22;11055;50.870;4.316;2023-06-10T11:33:48;30.90;62.30
21787;DHT22;11055;50.870;4.316;2023-06-10T11:36:14;31.10;59.60
21787;DHT22;11055;50.870;4.316;2023-06-10T11:38:44;31.10;58.00
21787;DHT22;11055;50.870;4.316;2023-06-10T11:41:11;31.30;58.80
21787;DHT22;11055;50.870;4.316;2023-06-10T11:43:40;31.10;56.70
21787;DHT22;11055;50.870;4.316;2023-06-10T11:46:07;31.00;58.40
21787;DHT22;11055;50.870;4.316;2023-06-10T11:48:33;31.30;58.90
21787;DHT22;11055;50.870;4.316;2023-06-10T11:50:59;31.10;58.60
21787;DHT22;11055;50.870;4.316;2023-06-10T11:53:25;31.30;60.50
21787;DHT22;11055;50.870;4.316;2023-06-10T11:55:51;31.50;58.80
21787;DHT22;11055;50.870;4.316;2023-06-10T11:58:18;31.70;58.40
21787;DHT22;11055;50.870;4.316;2023-06-10T12:00:52;32.10;58.40
21787;DHT22;11055;50.870;4.316;2023-06-10T12:03:27;32.20;56.40
21787;DHT22;11055;50.870;4.316;2023-06-10T12:06:07;32.40;57.80
21787;DHT22;11055;50.870;4.316;2023-06-10T12:08:35;32.60;56.40
21787;DHT22;11055;50.870;4.316;2023-06-10T12:11:06;32.80;55.10
21787;DHT22;11055;50.870;4.316;2023-06-10T12:13:32;33.10;54.90
21787;DHT22;11055;50.870;4.316;2023-06-10T12:16:10;33.40;53.90
21787;DHT22;11055;50.870;4.316;2023-06-10T12:18:36;33.50;54.80
21787;DHT22;11055;50.870;4.316;2023-06-10T12:21:01;33.50;54.50
21787;DHT22;11055;50.870;4.316;2023-06-10T12:23:29;33.50;54.00
21787;DHT22;11055;50.870;4.316;2023-06-10T12:25:55;33.40;54.90
21787;DHT22;11055;50.870;4.316;2023-06-10T12:28:22;33.50;56.80
21787;DHT22;11055;50.870;4.316;2023-06-10T12:30:49;33.40;55.60
21787;DHT22;11055;50.870;4.316;2023-06-10T12:33:22;33.30;54.20
21787;DHT22;11055;50.870;4.316;2023-06-10T12:35:51;33.20;54.00
21787;DHT22;11055;50.870;4.316;2023-06-10T12:38:25;33.10;53.10
21787;DHT22;11055;50.870;4.316;2023-06-10T12:40:54;32.80;54.10
21787;DHT22;11055;50.870;4.316;2023-06-10T12:43:26;32.80;57.20
21787;DHT22;11055;50.870;4.316;2023-06-10T12:45:52;32.70;56.00
21787;DHT22;11055;50.870;4.316;2023-06-10T12:48:22;32.70;55.30
21787;DHT22;11055;50.870;4.316;2023-06-10T12:50:56;32.70;55.20
21787;DHT22;11055;50.870;4.316;2023-06-10T12:53:24;32.50;53.70
21787;DHT22;11055;50.870;4.316;2023-06-10T12:55:52;32.00;54.00
21787;DHT22;11055;50.870;4.316;2023-06-10T12:58:20;31.70;53.70
21787;DHT22;11055;50.870;4.316;2023-06-10T13:00:45;31.60;55.00
21787;DHT22;11055;50.870;4.316;2023-06-10T13:03:11;31.50;55.00
21787;DHT22;11055;50.870;4.316;2023-06-10T13:05:40;31.70;56.40
21787;DHT22;11055;50.870;4.316;2023-06-10T13:08:08;31.50;55.00
21787;DHT22;11055;50.870;4.316;2023-06-10T13:10:36;31.50;55.70
21787;DHT22;11055;50.870;4.316;2023-06-10T13:13:02;31.60;56.60
21787;DHT22;11055;50.870;4.316;2023-06-10T13:15:31;31.40;54.50
21787;DHT22;11055;50.870;4.316;2023-06-10T13:17:56;31.30;55.20
21787;DHT22;11055;50.870;4.316;2023-06-10T13:20:23;31.30;56.90
21787;DHT22;11055;50.870;4.316;2023-06-10T13:22:51;31.40;56.30
21787;DHT22;11055;50.870;4.316;2023-06-10T13:25:17;31.50;56.40
21787;DHT22;11055;50.870;4.316;2023-06-10T13:27:43;31.40;54.60
21787;DHT22;11055;50.870;4.316;2023-06-10T13:30:10;31.40;55.50
21787;DHT22;11055;50.870;4.316;2023-06-10T13:32:36;31.30;56.20
21787;DHT22;11055;50.870;4.316;2023-06-10T13:35:02;31.30;57.00
21787;DHT22;11055;50.870;4.316;2023-06-10T13:37:29;31.40;58.10
21787;DHT22;11055;50.870;4.316;2023-06-10T13:39:55;31.30;56.40
21787;DHT22;11055;50.870;4.316;2023-06-10T13:42:22;31.30;57.20
21787;DHT22;11055;50.870;4.316;2023-06-10T13:44:48;31.20;56.90
21787;DHT22;11055;50.870;4.316;2023-06-10T13:47:15;31.10;55.80
21787;DHT22;11055;50.870;4.316;2023-06-10T13:49:42;31.10;57.30
21787;DHT22;11055;50.870;4.316;2023-06-10T13:52:07;31.10;57.50
21787;DHT22;11055;50.870;4.316;2023-06-10T13:54:34;31.00;55.00
21787;DHT22;11055;50.870;4.316;2023-06-10T13:57:03;31.00;57.30
21787;DHT22;11055;50.870;4.316;2023-06-10T13:59:29;30.90;58.10
21787;DHT22;11055;50.870;4.316;2023-06-10T14:01:54;31.00;56.70
21787;DHT22;11055;50.870;4.316;2023-06-10T14:04:21;31.00;57.60
21787;DHT22;11055;50.870;4.316;2023-06-10T14:06:46;31.00;55.50
21787;DHT22;11055;50.870;4.316;2023-06-10T14:09:13;31.10;56.30
21787;DHT22;11055;50.870;4.316;2023-06-10T14:11:39;31.10;56.80
21787;DHT22;11055;50.870;4.316;2023-06-10T14:14:04;31.20;55.70
21787;DHT22;11055;50.870;4.316;2023-06-10T14:16:30;31.20;55.50
21787;DHT22;11055;50.870;4.316;2023-06-10T14:18:56;31.30;55.70
21787;DHT22;11055;50.870;4.316;2023-06-10T14:21:22;31.30;56.00
21787;DHT22;11055;50.870;4.316;2023-06-10T14:23:47;31.20;55.50
21787;DHT22;11055;50.870;4.316;2023-06-10T14:26:16;31.10;58.10
21787;DHT22;11055;50.870;4.316;2023-06-10T14:28:41;31.10;55.20
21787;DHT22;11055;50.870;4.316;2023-06-10T14:31:07;31.10;56.50
21787;DHT22;11055;50.870;4.316;2023-06-10T14:33:33;31.10;56.40
21787;DHT22;11055;50.870;4.316;2023-06-10T14:35:59;31.20;57.20
21787;DHT22;11055;50.870;4.316;2023-06-10T14:38:25;31.20;56.10
21787;DHT22;11055;50.870;4.316;2023-06-10T14:40:51;31.20;56.90
21787;DHT22;11055;50.870;4.316;2023-06-10T14:43:17;31.10;56.40
21787;DHT22;11055;50.870;4.316;2023-06-10T14:45:44;31.00;56.10
21787;DHT22;11055;50.870;4.316;2023-06-10T14:48:10;30.90;56.00
21787;DHT22;11055;50.870;4.316;2023-06-10T14:50:36;30.80;58.20
21787;DHT22;11055;50.870;4.316;2023-06-10T14:53:03;30.80;57.20
21787;DHT22;11055;50.870;4.316;2023-06-10T14:55:28;30.90;57.10
21787;DHT22;11055;50.870;4.316;2023-06-10T14:57:54;30.90;55.20
21787;DHT22;11055;50.870;4.316;2023-06-10T15:00:21;31.00;56.80
21787;DHT22;11055;50.870;4.316;2023-06-10T15:02:48;31.00;56.90
21787;DHT22;11055;50.870;4.316;2023-06-10T15:05:14;30.80;57.90
21787;DHT22;11055;50.870;4.316;2023-06-10T15:07:41;30.80;55.40
21787;DHT22;11055;50.870;4.316;2023-06-10T15:10:07;30.70;55.20
21787;DHT22;11055;50.870;4.316;2023-06-10T15:12:34;30.80;54.80
21787;DHT22;11055;50.870;4.316;2023-06-10T15:15:00;30.70;54.70
21787;DHT22;11055;50.870;4.316;2023-06-10T15:17:26;30.70;55.10
21787;DHT22;11055;50.870;4.316;2023-06-10T15:19:51;30.70;56.20
21787;DHT22;11055;50.870;4.316;2023-06-10T15:22:17;30.80;56.60
21787;DHT22;11055;50.870;4.316;2023-06-10T15:24:44;30.80;55.20
21787;DHT22;11055;50.870;4.316;2023-06-10T15:27:10;30.80;53.90
21787;DHT22;11055;50.870;4.316;2023-06-10T15:29:36;30.80;54.20
21787;DHT22;11055;50.870;4.316;2023-06-10T15:32:02;30.60;57.20
21787;DHT22;11055;50.870;4.316;2023-06-10T15:34:27;30.50;55.40
21787;DHT22;11055;50.870;4.316;2023-06-10T15:36:53;30.50;56.10
21787;DHT22;11055;50.870;4.316;2023-06-10T15:39:18;30.60;55.60
21787;DHT22;11055;50.870;4.316;2023-06-10T15:41:44;30.60;57.00
21787;DHT22;11055;50.870;4.316;2023-06-10T15:44:11;30.50;56.00